sensor_id;sensor_type;location;lat;lon;timestamp;P1;durP1;ratioP1;P2;durP2;ratioP2
25854;SDS011;13680;49.936;11.344;2024-02-16T00:01:14;8.48;;;4.35;;
25854;SDS011;13680;49.936;11.344;2024-02-16T00:03:39;10.15;;;4.18;;
25854;SDS011;13680;49.936;11.344;2024-02-16T00:06:05;9.23;;;4.13;;
25854;SDS011;13680;49.936;11.344;2024-02-16T00:08:30;7.68;;;4.43;;
25854;SDS011;13680;49.936;11.344;2024-02-16T00:10:56;10.00;;;4.82;;
25854;SDS011;13680;49.936;11.344;2024-02-16T00:13:21;8.15;;;5.32;;
25854;SDS011;13680;49.936;11.344;2024-02-16T00:15:47;8.48;;;4.40;;
25854;SDS011;13680;49.936;11.344;2024-02-16T00:18:13;7.38;;;4.63;;
25854;SDS011;13680;49.936;11.344;2024-02-16T00:20:38;10.93;;;5.38;;
25854;SDS011;13680;49.936;11.344;2024-02-16T00:23:03;7.25;;;3.92;;
25854;SDS011;13680;49.936;11.344;2024-02-16T00:25:29;7.63;;;5.00;;
25854;SDS011;13680;49.936;11.344;2024-02-16T00:27:54;6.35;;;3.92;;
25854;SDS011;13680;49.936;11.344;2024-02-16T00:30:20;11.73;;;5.05;;
25854;SDS011;13680;49.936;11.344;2024-02-16T00:32:46;12.35;;;5.25;;
25854;SDS011;13680;49.936;11.344;2024-02-16T00:35:12;8.30;;;5.07;;
25854;SDS011;13680;49.936;11.344;2024-02-16T00:37:38;9.23;;;5.25;;
25854;SDS011;13680;49.936;11.344;2024-02-16T00:40:04;10.63;;;4.45;;
25854;SDS011;13680;49.936;11.344;2024-02-16T00:42:31;9.43;;;5.00;;
25854;SDS011;13680;49.936;11.344;2024-02-16T00:44:57;8.65;;;4.50;;
25854;SDS011;13680;49.936;11.344;2024-02-16T00:47:22;8.27;;;5.00;;
25854;SDS011;13680;49.936;11.344;2024-02-16T00:49:48;9.25;;;4.90;;
25854;SDS011;13680;49.936;11.344;2024-02-16T00:52:14;8.73;;;5.30;;
25854;SDS011;13680;49.936;11.344;2024-02-16T00:54:39;7.13;;;5.40;;
25854;SDS011;13680;49.936;11.344;2024-02-16T00:57:05;13.05;;;5.50;;
25854;SDS011;13680;49.936;11.344;2024-02-16T00:59:30;7.32;;;4.68;;
25854;SDS011;13680;49.936;11.344;2024-02-16T01:01:55;7.55;;;4.78;;
25854;SDS011;13680;49.936;11.344;2024-02-16T01:04:21;11.27;;;4.90;;
25854;SDS011;13680;49.936;11.344;2024-02-16T01:06:46;7.95;;;5.22;;
25854;SDS011;13680;49.936;11.344;2024-02-16T01:09:11;8.90;;;5.32;;
25854;SDS011;13680;49.936;11.344;2024-02-16T01:11:38;9.30;;;5.35;;
25854;SDS011;13680;49.936;11.344;2024-02-16T01:14:06;8.60;;;5.60;;
25854;SDS011;13680;49.936;11.344;2024-02-16T01:16:32;8.52;;;5.32;;
25854;SDS011;13680;49.936;11.344;2024-02-16T01:18:57;13.85;;;5.53;;
25854;SDS011;13680;49.936;11.344;2024-02-16T01:21:22;10.02;;;5.25;;
25854;SDS011;13680;49.936;11.344;2024-02-16T01:23:48;8.90;;;5.90;;
25854;SDS011;13680;49.936;11.344;2024-02-16T01:26:13;11.00;;;5.57;;
25854;SDS011;13680;49.936;11.344;2024-02-16T01:28:39;9.40;;;5.07;;
25854;SDS011;13680;49.936;11.344;2024-02-16T01:31:04;7.80;;;5.25;;
25854;SDS011;13680;49.936;11.344;2024-02-16T01:33:30;9.43;;;5.00;;
25854;SDS011;13680;49.936;11.344;2024-02-16T01:35:58;10.43;;;4.90;;
25854;SDS011;13680;49.936;11.344;2024-02-16T01:38:23;13.85;;;5.00;;
25854;SDS011;13680;49.936;11.344;2024-02-16T01:40:49;9.80;;;5.55;;
25854;SDS011;13680;49.936;11.344;2024-02-16T01:43:18;8.25;;;4.50;;
25854;SDS011;13680;49.936;11.344;2024-02-16T01:45:44;6.78;;;4.75;;
25854;SDS011;13680;49.936;11.344;2024-02-16T01:48:09;7.75;;;4.55;;
25854;SDS011;13680;49.936;11.344;2024-02-16T01:50:35;9.13;;;4.88;;
25854;SDS011;13680;49.936;11.344;2024-02-16T01:53:00;10.88;;;4.65;;
25854;SDS011;13680;49.936;11.344;2024-02-16T01:55:26;9.30;;;4.47;;
25854;SDS011;13680;49.936;11.344;2024-02-16T01:57:51;9.20;;;4.35;;
25854;SDS011;13680;49.936;11.344;2024-02-16T02:00:17;7.95;;;4.93;;
25854;SDS011;13680;49.936;11.344;2024-02-16T02:02:46;7.30;;;4.60;;
25854;SDS011;13680;49.936;11.344;2024-02-16T02:05:12;8.80;;;4.50;;
25854;SDS011;13680;49.936;11.344;2024-02-16T02:07:38;12.48;;;5.63;;
25854;SDS011;13680;49.936;11.344;2024-02-16T02:10:04;7.43;;;4.47;;
25854;SDS011;13680;49.936;11.344;2024-02-16T02:12:29;8.93;;;4.65;;
25854;SDS011;13680;49.936;11.344;2024-02-16T02:14:55;6.30;;;4.60;;
25854;SDS011;13680;49.936;11.344;2024-02-16T02:17:20;10.70;;;4.53;;
25854;SDS011;13680;49.936;11.344;2024-02-16T02:19:46;9.32;;;4.90;;
25854;SDS011;13680;49.936;11.344;2024-02-16T02:22:15;10.75;;;4.88;;
25854;SDS011;13680;49.936;11.344;2024-02-16T02:24:40;14.07;;;4.63;;
25854;SDS011;13680;49.936;11.344;2024-02-16T02:27:06;10.13;;;5.38;;
25854;SDS011;13680;49.936;11.344;2024-02-16T02:29:32;6.72;;;4.20;;
25854;SDS011;13680;49.936;11.344;2024-02-16T02:31:59;11.20;;;5.15;;
25854;SDS011;13680;49.936;11.344;2024-02-16T02:34:24;10.15;;;5.38;;
25854;SDS011;13680;49.936;11.344;2024-02-16T02:36:50;8.40;;;4.85;;
25854;SDS011;13680;49.936;11.344;2024-02-16T02:39:15;7.43;;;4.47;;
25854;SDS011;13680;49.936;11.344;2024-02-16T02:41:40;9.60;;;5.05;;
25854;SDS011;13680;49.936;11.344;2024-02-16T02:44:05;10.13;;;5.25;;
25854;SDS011;13680;49.936;11.344;2024-02-16T02:46:31;9.15;;;4.50;;
25854;SDS011;13680;49.936;11.344;2024-02-16T02:48:56;4.63;;;3.85;;
25854;SDS011;13680;49.936;11.344;2024-02-16T02:51:21;6.38;;;4.53;;
25854;SDS011;13680;49.936;11.344;2024-02-16T02:53:47;7.18;;;5.05;;
25854;SDS011;13680;49.936;11.344;2024-02-16T02:56:12;7.13;;;4.47;;
25854;SDS011;13680;49.936;11.344;2024-02-16T02:58:40;6.80;;;4.55;;
25854;SDS011;13680;49.936;11.344;2024-02-16T03:01:06;6.38;;;4.30;;
25854;SDS011;13680;49.936;11.344;2024-02-16T03:03:33;11.43;;;3.83;;
25854;SDS011;13680;49.936;11.344;2024-02-16T03:05:59;7.75;;;4.20;;
25854;SDS011;13680;49.936;11.344;2024-02-16T03:08:24;7.90;;;4.47;;
25854;SDS011;13680;49.936;11.344;2024-02-16T03:10:50;11.65;;;5.80;;
25854;SDS011;13680;49.936;11.344;2024-02-16T03:13:15;12.32;;;4.57;;
25854;SDS011;13680;49.936;11.344;2024-02-16T03:15:43;9.13;;;5.13;;
25854;SDS011;13680;49.936;11.344;2024-02-16T03:18:09;9.98;;;6.15;;
25854;SDS011;13680;49.936;11.344;2024-02-16T03:20:34;10.82;;;5.45;;
25854;SDS011;13680;49.936;11.344;2024-02-16T03:23:00;7.05;;;4.82;;
25854;SDS011;13680;49.936;11.344;2024-02-16T03:25:26;12.30;;;5.13;;
25854;SDS011;13680;49.936;11.344;2024-02-16T03:27:51;8.57;;;5.07;;
25854;SDS011;13680;49.936;11.344;2024-02-16T03:30:18;7.95;;;5.40;;
25854;SDS011;13680;49.936;11.344;2024-02-16T03:32:50;8.35;;;5.00;;
25854;SDS011;13680;49.936;11.344;2024-02-16T03:35:17;9.85;;;4.75;;
25854;SDS011;13680;49.936;11.344;2024-02-16T03:37:42;8.07;;;5.38;;
25854;SDS011;13680;49.936;11.344;2024-02-16T03:40:08;8.98;;;5.07;;
25854;SDS011;13680;49.936;11.344;2024-02-16T03:42:35;9.45;;;5.20;;
25854;SDS011;13680;49.936;11.344;2024-02-16T03:45:01;15.90;;;5.90;;
25854;SDS011;13680;49.936;11.344;2024-02-16T03:47:27;7.55;;;4.30;;
25854;SDS011;13680;49.936;11.344;2024-02-16T03:49:53;7.65;;;4.53;;
25854;SDS011;13680;49.936;11.344;2024-02-16T03:52:18;7.68;;;4.70;;
25854;SDS011;13680;49.936;11.344;2024-02-16T03:54:43;7.80;;;5.05;;
25854;SDS011;13680;49.936;11.344;2024-02-16T03:57:12;12.52;;;5.85;;
25854;SDS011;13680;49.936;11.344;2024-02-16T03:59:37;9.52;;;6.13;;
25854;SDS011;13680;49.936;11.344;2024-02-16T04:02:03;13.25;;;6.47;;
25854;SDS011;13680;49.936;11.344;2024-02-16T04:04:28;12.00;;;6.20;;
25854;SDS011;13680;49.936;11.344;2024-02-16T04:06:53;15.13;;;6.13;;
25854;SDS011;13680;49.936;11.344;2024-02-16T04:09:19;9.85;;;6.45;;
25854;SDS011;13680;49.936;11.344;2024-02-16T04:11:45;10.93;;;6.25;;
25854;SDS011;13680;49.936;11.344;2024-02-16T04:14:10;12.18;;;7.10;;
25854;SDS011;13680;49.936;11.344;2024-02-16T04:16:36;13.77;;;6.93;;
25854;SDS011;13680;49.936;11.344;2024-02-16T04:19:01;9.80;;;6.80;;
25854;SDS011;13680;49.936;11.344;2024-02-16T04:21:27;13.13;;;7.53;;
25854;SDS011;13680;49.936;11.344;2024-02-16T04:23:52;9.95;;;6.45;;
25854;SDS011;13680;49.936;11.344;2024-02-16T04:26:18;11.82;;;6.97;;
25854;SDS011;13680;49.936;11.344;2024-02-16T04:28:43;12.55;;;7.28;;
25854;SDS011;13680;49.936;11.344;2024-02-16T04:31:08;11.18;;;7.35;;
25854;SDS011;13680;49.936;11.344;2024-02-16T04:33:34;11.45;;;7.32;;
25854;SDS011;13680;49.936;11.344;2024-02-16T04:35:59;13.50;;;8.27;;
25854;SDS011;13680;49.936;11.344;2024-02-16T04:38:24;12.80;;;7.45;;
25854;SDS011;13680;49.936;11.344;2024-02-16T04:40:50;16.92;;;8.00;;
25854;SDS011;13680;49.936;11.344;2024-02-16T04:43:15;12.35;;;7.75;;
25854;SDS011;13680;49.936;11.344;2024-02-16T04:45:41;14.98;;;8.07;;
25854;SDS011;13680;49.936;11.344;2024-02-16T04:48:06;10.52;;;7.75;;
25854;SDS011;13680;49.936;11.344;2024-02-16T04:50:32;12.90;;;8.05;;
25854;SDS011;13680;49.936;11.344;2024-02-16T04:52:58;9.95;;;7.20;;
25854;SDS011;13680;49.936;11.344;2024-02-16T04:55:24;11.68;;;7.57;;
25854;SDS011;13680;49.936;11.344;2024-02-16T04:57:49;10.90;;;7.22;;
25854;SDS011;13680;49.936;11.344;2024-02-16T05:00:14;16.35;;;7.60;;
25854;SDS011;13680;49.936;11.344;2024-02-16T05:02:40;12.00;;;7.38;;
25854;SDS011;13680;49.936;11.344;2024-02-16T05:05:06;14.45;;;7.72;;
25854;SDS011;13680;49.936;11.344;2024-02-16T05:07:32;12.80;;;7.25;;
25854;SDS011;13680;49.936;11.344;2024-02-16T05:09:58;15.50;;;7.18;;
25854;SDS011;13680;49.936;11.344;2024-02-16T05:12:24;12.80;;;7.55;;
25854;SDS011;13680;49.936;11.344;2024-02-16T05:14:50;11.65;;;7.65;;
25854;SDS011;13680;49.936;11.344;2024-02-16T05:17:16;12.32;;;8.02;;
25854;SDS011;13680;49.936;11.344;2024-02-16T05:19:41;11.27;;;7.88;;
25854;SDS011;13680;49.936;11.344;2024-02-16T05:22:07;9.50;;;6.75;;
25854;SDS011;13680;49.936;11.344;2024-02-16T05:24:32;10.75;;;6.72;;
25854;SDS011;13680;49.936;11.344;2024-02-16T05:26:58;13.75;;;7.57;;
25854;SDS011;13680;49.936;11.344;2024-02-16T05:29:24;12.43;;;6.85;;
25854;SDS011;13680;49.936;11.344;2024-02-16T05:31:52;11.65;;;7.43;;
25854;SDS011;13680;49.936;11.344;2024-02-16T05:34:19;12.27;;;7.13;;
25854;SDS011;13680;49.936;11.344;2024-02-16T05:36:44;10.60;;;6.80;;
25854;SDS011;13680;49.936;11.344;2024-02-16T05:39:10;13.65;;;7.25;;
25854;SDS011;13680;49.936;11.344;2024-02-16T05:41:56;11.38;;;6.65;;
25854;SDS011;13680;49.936;11.344;2024-02-16T05:44:21;11.32;;;7.70;;
25854;SDS011;13680;49.936;11.344;2024-02-16T05:46:46;8.82;;;6.43;;
25854;SDS011;13680;49.936;11.344;2024-02-16T05:49:12;13.43;;;6.60;;
25854;SDS011;13680;49.936;11.344;2024-02-16T05:51:39;13.70;;;6.95;;
25854;SDS011;13680;49.936;11.344;2024-02-16T05:54:06;11.07;;;7.78;;
25854;SDS011;13680;49.936;11.344;2024-02-16T05:56:33;11.75;;;6.85;;
25854;SDS011;13680;49.936;11.344;2024-02-16T05:59:06;17.30;;;7.65;;
25854;SDS011;13680;49.936;11.344;2024-02-16T06:01:31;10.07;;;7.40;;
25854;SDS011;13680;49.936;11.344;2024-02-16T06:03:56;13.88;;;6.82;;
25854;SDS011;13680;49.936;11.344;2024-02-16T06:06:22;13.65;;;7.63;;
25854;SDS011;13680;49.936;11.344;2024-02-16T06:08:47;11.85;;;6.90;;
25854;SDS011;13680;49.936;11.344;2024-02-16T06:11:12;10.68;;;7.22;;
25854;SDS011;13680;49.936;11.344;2024-02-16T06:13:38;15.07;;;8.80;;
25854;SDS011;13680;49.936;11.344;2024-02-16T06:16:07;13.48;;;7.57;;
25854;SDS011;13680;49.936;11.344;2024-02-16T06:18:33;14.20;;;7.53;;
25854;SDS011;13680;49.936;11.344;2024-02-16T06:20:59;15.43;;;8.77;;
25854;SDS011;13680;49.936;11.344;2024-02-16T06:23:25;11.82;;;7.10;;
25854;SDS011;13680;49.936;11.344;2024-02-16T06:25:50;9.32;;;7.07;;
25854;SDS011;13680;49.936;11.344;2024-02-16T06:28:15;10.23;;;7.75;;
25854;SDS011;13680;49.936;11.344;2024-02-16T06:30:41;10.73;;;7.40;;
25854;SDS011;13680;49.936;11.344;2024-02-16T06:33:06;11.55;;;7.38;;
25854;SDS011;13680;49.936;11.344;2024-02-16T06:35:32;14.98;;;7.55;;
25854;SDS011;13680;49.936;11.344;2024-02-16T06:37:57;13.75;;;7.10;;
25854;SDS011;13680;49.936;11.344;2024-02-16T06:40:22;11.30;;;7.07;;
25854;SDS011;13680;49.936;11.344;2024-02-16T06:42:48;10.23;;;7.35;;
25854;SDS011;13680;49.936;11.344;2024-02-16T06:45:13;11.05;;;7.68;;
25854;SDS011;13680;49.936;11.344;2024-02-16T06:47:38;13.77;;;7.68;;
25854;SDS011;13680;49.936;11.344;2024-02-16T06:50:04;15.38;;;7.05;;
25854;SDS011;13680;49.936;11.344;2024-02-16T06:52:29;11.52;;;7.50;;
25854;SDS011;13680;49.936;11.344;2024-02-16T06:54:55;15.35;;;7.43;;
25854;SDS011;13680;49.936;11.344;2024-02-16T06:57:20;15.55;;;7.20;;
25854;SDS011;13680;49.936;11.344;2024-02-16T06:59:46;11.23;;;8.30;;
25854;SDS011;13680;49.936;11.344;2024-02-16T07:02:11;10.70;;;7.53;;
25854;SDS011;13680;49.936;11.344;2024-02-16T07:04:41;9.80;;;6.93;;
25854;SDS011;13680;49.936;11.344;2024-02-16T07:07:07;13.95;;;6.95;;
25854;SDS011;13680;49.936;11.344;2024-02-16T07:09:33;13.32;;;7.47;;
25854;SDS011;13680;49.936;11.344;2024-02-16T07:11:58;11.32;;;7.35;;
25854;SDS011;13680;49.936;11.344;2024-02-16T07:14:24;13.88;;;7.70;;
25854;SDS011;13680;49.936;11.344;2024-02-16T07:16:49;16.02;;;7.60;;
25854;SDS011;13680;49.936;11.344;2024-02-16T07:19:14;11.50;;;7.15;;
25854;SDS011;13680;49.936;11.344;2024-02-16T07:21:40;9.45;;;6.93;;
25854;SDS011;13680;49.936;11.344;2024-02-16T07:24:05;17.20;;;7.88;;
25854;SDS011;13680;49.936;11.344;2024-02-16T07:26:31;12.95;;;6.60;;
25854;SDS011;13680;49.936;11.344;2024-02-16T07:28:56;11.88;;;7.35;;
25854;SDS011;13680;49.936;11.344;2024-02-16T07:31:22;11.40;;;6.97;;
25854;SDS011;13680;49.936;11.344;2024-02-16T07:33:47;14.27;;;6.75;;
25854;SDS011;13680;49.936;11.344;2024-02-16T07:36:13;11.07;;;6.72;;
25854;SDS011;13680;49.936;11.344;2024-02-16T07:38:39;10.77;;;7.20;;
25854;SDS011;13680;49.936;11.344;2024-02-16T07:41:04;13.57;;;7.22;;
25854;SDS011;13680;49.936;11.344;2024-02-16T07:43:31;9.45;;;7.07;;
25854;SDS011;13680;49.936;11.344;2024-02-16T07:45:56;13.27;;;7.15;;
25854;SDS011;13680;49.936;11.344;2024-02-16T07:48:22;8.65;;;6.22;;
25854;SDS011;13680;49.936;11.344;2024-02-16T07:50:48;12.00;;;6.18;;
25854;SDS011;13680;49.936;11.344;2024-02-16T07:53:15;9.60;;;6.50;;
25854;SDS011;13680;49.936;11.344;2024-02-16T07:55:41;10.20;;;6.25;;
25854;SDS011;13680;49.936;11.344;2024-02-16T07:58:06;10.57;;;6.15;;
25854;SDS011;13680;49.936;11.344;2024-02-16T08:03:04;9.35;;;6.22;;
25854;SDS011;13680;49.936;11.344;2024-02-16T08:05:29;27.58;;;11.60;;
25854;SDS011;13680;49.936;11.344;2024-02-16T08:07:54;12.25;;;6.75;;
25854;SDS011;13680;49.936;11.344;2024-02-16T08:10:20;13.30;;;7.18;;
25854;SDS011;13680;49.936;11.344;2024-02-16T08:12:46;15.10;;;7.28;;
25854;SDS011;13680;49.936;11.344;2024-02-16T08:15:12;12.70;;;7.40;;
25854;SDS011;13680;49.936;11.344;2024-02-16T08:17:38;10.68;;;6.22;;
25854;SDS011;13680;49.936;11.344;2024-02-16T08:20:04;8.52;;;6.50;;
25854;SDS011;13680;49.936;11.344;2024-02-16T08:22:30;11.73;;;7.07;;
25854;SDS011;13680;49.936;11.344;2024-02-16T08:24:57;11.50;;;6.85;;
25854;SDS011;13680;49.936;11.344;2024-02-16T08:27:22;10.00;;;6.22;;
25854;SDS011;13680;49.936;11.344;2024-02-16T08:29:48;11.70;;;6.70;;
25854;SDS011;13680;49.936;11.344;2024-02-16T08:32:13;10.15;;;5.90;;
25854;SDS011;13680;49.936;11.344;2024-02-16T08:34:39;10.00;;;6.10;;
25854;SDS011;13680;49.936;11.344;2024-02-16T08:37:04;11.05;;;6.38;;
25854;SDS011;13680;49.936;11.344;2024-02-16T08:39:31;11.48;;;6.20;;
25854;SDS011;13680;49.936;11.344;2024-02-16T08:41:57;16.20;;;8.45;;
25854;SDS011;13680;49.936;11.344;2024-02-16T08:44:23;10.40;;;7.00;;
25854;SDS011;13680;49.936;11.344;2024-02-16T08:46:49;9.63;;;5.78;;
25854;SDS011;13680;49.936;11.344;2024-02-16T08:49:15;10.38;;;6.05;;
25854;SDS011;13680;49.936;11.344;2024-02-16T08:51:41;9.27;;;5.97;;
25854;SDS011;13680;49.936;11.344;2024-02-16T08:54:07;8.07;;;5.82;;
25854;SDS011;13680;49.936;11.344;2024-02-16T08:56:33;10.57;;;8.00;;
25854;SDS011;13680;49.936;11.344;2024-02-16T08:59:00;7.03;;;5.25;;
25854;SDS011;13680;49.936;11.344;2024-02-16T09:01:32;7.70;;;5.72;;
25854;SDS011;13680;49.936;11.344;2024-02-16T09:04:01;7.72;;;5.53;;
25854;SDS011;13680;49.936;11.344;2024-02-16T09:06:27;6.30;;;4.88;;
25854;SDS011;13680;49.936;11.344;2024-02-16T09:08:53;7.35;;;4.60;;
25854;SDS011;13680;49.936;11.344;2024-02-16T09:11:18;10.13;;;5.22;;
25854;SDS011;13680;49.936;11.344;2024-02-16T09:13:44;16.75;;;6.60;;
25854;SDS011;13680;49.936;11.344;2024-02-16T09:16:09;7.70;;;4.80;;
25854;SDS011;13680;49.936;11.344;2024-02-16T09:18:34;9.75;;;5.20;;
25854;SDS011;13680;49.936;11.344;2024-02-16T09:21:02;9.48;;;5.05;;
25854;SDS011;13680;49.936;11.344;2024-02-16T09:23:27;7.72;;;4.70;;
25854;SDS011;13680;49.936;11.344;2024-02-16T09:25:53;6.07;;;4.50;;
25854;SDS011;13680;49.936;11.344;2024-02-16T09:28:19;13.25;;;4.88;;
25854;SDS011;13680;49.936;11.344;2024-02-16T09:30:45;7.88;;;5.25;;
25854;SDS011;13680;49.936;11.344;2024-02-16T09:33:11;6.57;;;4.40;;
25854;SDS011;13680;49.936;11.344;2024-02-16T09:35:36;8.38;;;4.15;;
25854;SDS011;13680;49.936;11.344;2024-02-16T09:38:01;7.60;;;4.50;;
25854;SDS011;13680;49.936;11.344;2024-02-16T09:40:28;9.15;;;4.55;;
25854;SDS011;13680;49.936;11.344;2024-02-16T09:42:53;8.38;;;4.13;;
25854;SDS011;13680;49.936;11.344;2024-02-16T09:45:19;14.15;;;4.10;;
25854;SDS011;13680;49.936;11.344;2024-02-16T09:47:48;10.57;;;4.53;;
25854;SDS011;13680;49.936;11.344;2024-02-16T09:50:14;8.55;;;4.32;;
25854;SDS011;13680;49.936;11.344;2024-02-16T09:52:40;7.60;;;4.63;;
25854;SDS011;13680;49.936;11.344;2024-02-16T09:55:07;7.55;;;4.72;;
25854;SDS011;13680;49.936;11.344;2024-02-16T09:57:36;12.63;;;7.57;;
25854;SDS011;13680;49.936;11.344;2024-02-16T10:00:02;6.70;;;4.72;;
25854;SDS011;13680;49.936;11.344;2024-02-16T10:02:38;7.15;;;4.18;;
25854;SDS011;13680;49.936;11.344;2024-02-16T10:05:14;6.03;;;3.65;;
25854;SDS011;13680;49.936;11.344;2024-02-16T10:07:42;9.43;;;7.32;;
25854;SDS011;13680;49.936;11.344;2024-02-16T10:10:25;6.53;;;3.80;;
25854;SDS011;13680;49.936;11.344;2024-02-16T10:15:31;7.25;;;3.60;;
25854;SDS011;13680;49.936;11.344;2024-02-16T10:18:00;5.80;;;3.70;;
25854;SDS011;13680;49.936;11.344;2024-02-16T10:20:27;7.88;;;3.38;;
25854;SDS011;13680;49.936;11.344;2024-02-16T10:25:47;9.90;;;4.53;;
25854;SDS011;13680;49.936;11.344;2024-02-16T10:28:12;5.50;;;3.40;;
25854;SDS011;13680;49.936;11.344;2024-02-16T10:30:39;7.20;;;3.92;;
25854;SDS011;13680;49.936;11.344;2024-02-16T10:33:07;4.72;;;3.50;;
25854;SDS011;13680;49.936;11.344;2024-02-16T10:35:37;5.95;;;3.28;;
25854;SDS011;13680;49.936;11.344;2024-02-16T10:38:04;6.00;;;3.28;;
25854;SDS011;13680;49.936;11.344;2024-02-16T10:40:36;4.90;;;3.10;;
25854;SDS011;13680;49.936;11.344;2024-02-16T10:43:06;6.55;;;3.70;;
25854;SDS011;13680;49.936;11.344;2024-02-16T10:45:36;5.55;;;3.42;;
25854;SDS011;13680;49.936;11.344;2024-02-16T10:48:03;4.47;;;3.20;;
25854;SDS011;13680;49.936;11.344;2024-02-16T10:50:30;5.60;;;3.78;;
25854;SDS011;13680;49.936;11.344;2024-02-16T10:52:57;6.53;;;3.47;;
25854;SDS011;13680;49.936;11.344;2024-02-16T10:55:26;5.35;;;2.80;;
25854;SDS011;13680;49.936;11.344;2024-02-16T10:57:53;5.15;;;3.03;;
25854;SDS011;13680;49.936;11.344;2024-02-16T11:00:21;6.53;;;3.22;;
25854;SDS011;13680;49.936;11.344;2024-02-16T11:02:51;8.05;;;3.38;;
25854;SDS011;13680;49.936;11.344;2024-02-16T11:05:34;8.00;;;3.22;;
25854;SDS011;13680;49.936;11.344;2024-02-16T11:08:14;5.50;;;3.08;;
25854;SDS011;13680;49.936;11.344;2024-02-16T11:10:40;8.98;;;3.42;;
25854;SDS011;13680;49.936;11.344;2024-02-16T11:13:05;7.35;;;3.53;;
25854;SDS011;13680;49.936;11.344;2024-02-16T11:15:31;4.93;;;3.22;;
25854;SDS011;13680;49.936;11.344;2024-02-16T11:17:59;4.25;;;2.70;;
25854;SDS011;13680;49.936;11.344;2024-02-16T11:20:26;4.38;;;3.20;;
25854;SDS011;13680;49.936;11.344;2024-02-16T11:22:52;9.38;;;4.00;;
25854;SDS011;13680;49.936;11.344;2024-02-16T11:25:18;5.13;;;3.42;;
25854;SDS011;13680;49.936;11.344;2024-02-16T11:27:45;6.13;;;2.97;;
25854;SDS011;13680;49.936;11.344;2024-02-16T11:30:12;6.45;;;3.92;;
25854;SDS011;13680;49.936;11.344;2024-02-16T11:32:37;6.40;;;3.15;;
25854;SDS011;13680;49.936;11.344;2024-02-16T11:35:06;5.45;;;2.97;;
25854;SDS011;13680;49.936;11.344;2024-02-16T11:37:33;5.75;;;2.80;;
25854;SDS011;13680;49.936;11.344;2024-02-16T11:39:59;4.00;;;2.60;;
25854;SDS011;13680;49.936;11.344;2024-02-16T11:42:24;8.75;;;6.25;;
25854;SDS011;13680;49.936;11.344;2024-02-16T11:44:53;6.03;;;3.60;;
25854;SDS011;13680;49.936;11.344;2024-02-16T11:47:20;7.40;;;3.78;;
25854;SDS011;13680;49.936;11.344;2024-02-16T11:49:59;5.07;;;3.05;;
25854;SDS011;13680;49.936;11.344;2024-02-16T11:52:34;7.53;;;2.80;;
25854;SDS011;13680;49.936;11.344;2024-02-16T11:54:59;6.85;;;2.60;;
25854;SDS011;13680;49.936;11.344;2024-02-16T11:57:29;4.82;;;3.03;;
25854;SDS011;13680;49.936;11.344;2024-02-16T11:59:55;6.85;;;2.75;;
25854;SDS011;13680;49.936;11.344;2024-02-16T12:02:20;6.13;;;2.58;;
25854;SDS011;13680;49.936;11.344;2024-02-16T12:04:47;4.22;;;2.80;;
25854;SDS011;13680;49.936;11.344;2024-02-16T12:07:12;5.78;;;3.08;;
25854;SDS011;13680;49.936;11.344;2024-02-16T12:09:39;5.15;;;2.90;;
25854;SDS011;13680;49.936;11.344;2024-02-16T12:12:04;5.28;;;2.55;;
25854;SDS011;13680;49.936;11.344;2024-02-16T12:14:33;4.97;;;2.90;;
25854;SDS011;13680;49.936;11.344;2024-02-16T12:17:00;5.60;;;3.33;;
25854;SDS011;13680;49.936;11.344;2024-02-16T12:19:25;5.03;;;2.90;;
25854;SDS011;13680;49.936;11.344;2024-02-16T12:21:57;5.38;;;2.67;;
25854;SDS011;13680;49.936;11.344;2024-02-16T12:24:22;5.82;;;2.67;;
25854;SDS011;13680;49.936;11.344;2024-02-16T12:26:48;5.57;;;2.67;;
25854;SDS011;13680;49.936;11.344;2024-02-16T12:29:13;5.28;;;2.72;;
25854;SDS011;13680;49.936;11.344;2024-02-16T12:31:39;4.22;;;2.95;;
25854;SDS011;13680;49.936;11.344;2024-02-16T12:34:06;9.40;;;4.70;;
25854;SDS011;13680;49.936;11.344;2024-02-16T12:36:32;7.25;;;3.20;;
25854;SDS011;13680;49.936;11.344;2024-02-16T12:39:01;8.00;;;3.63;;
25854;SDS011;13680;49.936;11.344;2024-02-16T12:41:31;5.68;;;3.00;;
25854;SDS011;13680;49.936;11.344;2024-02-16T12:44:01;5.25;;;2.60;;
25854;SDS011;13680;49.936;11.344;2024-02-16T12:46:26;6.90;;;3.00;;
25854;SDS011;13680;49.936;11.344;2024-02-16T12:48:53;6.32;;;2.88;;
25854;SDS011;13680;49.936;11.344;2024-02-16T12:51:18;5.03;;;2.65;;
25854;SDS011;13680;49.936;11.344;2024-02-16T12:53:44;8.85;;;3.05;;
25854;SDS011;13680;49.936;11.344;2024-02-16T12:56:10;5.15;;;2.47;;
25854;SDS011;13680;49.936;11.344;2024-02-16T12:58:35;3.53;;;2.58;;
25854;SDS011;13680;49.936;11.344;2024-02-16T13:01:01;4.72;;;2.80;;
25854;SDS011;13680;49.936;11.344;2024-02-16T13:03:28;5.05;;;2.60;;
25854;SDS011;13680;49.936;11.344;2024-02-16T13:05:53;6.57;;;2.70;;
25854;SDS011;13680;49.936;11.344;2024-02-16T13:08:18;3.85;;;2.65;;
25854;SDS011;13680;49.936;11.344;2024-02-16T13:10:44;4.88;;;2.75;;
25854;SDS011;13680;49.936;11.344;2024-02-16T13:13:09;6.82;;;2.78;;
25854;SDS011;13680;49.936;11.344;2024-02-16T13:15:34;3.90;;;2.60;;
25854;SDS011;13680;49.936;11.344;2024-02-16T13:18:00;4.50;;;2.33;;
25854;SDS011;13680;49.936;11.344;2024-02-16T13:20:25;4.13;;;2.50;;
25854;SDS011;13680;49.936;11.344;2024-02-16T13:22:51;4.43;;;2.50;;
25854;SDS011;13680;49.936;11.344;2024-02-16T13:25:16;4.25;;;2.28;;
25854;SDS011;13680;49.936;11.344;2024-02-16T13:27:42;4.45;;;2.80;;
25854;SDS011;13680;49.936;11.344;2024-02-16T13:30:08;3.25;;;2.22;;
25854;SDS011;13680;49.936;11.344;2024-02-16T13:32:34;3.72;;;2.45;;
25854;SDS011;13680;49.936;11.344;2024-02-16T13:35:01;14.07;;;9.43;;
25854;SDS011;13680;49.936;11.344;2024-02-16T13:37:27;6.20;;;2.78;;
25854;SDS011;13680;49.936;11.344;2024-02-16T13:39:53;11.25;;;3.58;;
25854;SDS011;13680;49.936;11.344;2024-02-16T13:42:18;5.30;;;3.33;;
25854;SDS011;13680;49.936;11.344;2024-02-16T13:44:44;4.32;;;2.47;;
25854;SDS011;13680;49.936;11.344;2024-02-16T13:47:10;5.97;;;2.10;;
25854;SDS011;13680;49.936;11.344;2024-02-16T13:49:35;4.35;;;2.47;;
25854;SDS011;13680;49.936;11.344;2024-02-16T13:52:00;4.88;;;2.40;;
25854;SDS011;13680;49.936;11.344;2024-02-16T13:54:26;5.93;;;2.58;;
25854;SDS011;13680;49.936;11.344;2024-02-16T13:56:51;3.92;;;2.40;;
25854;SDS011;13680;49.936;11.344;2024-02-16T13:59:17;4.15;;;2.33;;
25854;SDS011;13680;49.936;11.344;2024-02-16T14:01:43;4.40;;;2.70;;
25854;SDS011;13680;49.936;11.344;2024-02-16T14:04:08;3.92;;;2.38;;
25854;SDS011;13680;49.936;11.344;2024-02-16T14:06:34;5.80;;;3.65;;
25854;SDS011;13680;49.936;11.344;2024-02-16T14:09:00;7.40;;;2.42;;
25854;SDS011;13680;49.936;11.344;2024-02-16T14:11:36;4.88;;;2.58;;
25854;SDS011;13680;49.936;11.344;2024-02-16T14:14:01;4.20;;;2.50;;
25854;SDS011;13680;49.936;11.344;2024-02-16T14:16:27;3.03;;;2.28;;
25854;SDS011;13680;49.936;11.344;2024-02-16T14:18:53;6.90;;;2.50;;
25854;SDS011;13680;49.936;11.344;2024-02-16T14:21:18;5.20;;;2.67;;
25854;SDS011;13680;49.936;11.344;2024-02-16T14:23:43;6.28;;;2.63;;
25854;SDS011;13680;49.936;11.344;2024-02-16T14:26:09;4.22;;;2.17;;
25854;SDS011;13680;49.936;11.344;2024-02-16T14:28:35;6.47;;;2.30;;
25854;SDS011;13680;49.936;11.344;2024-02-16T14:31:00;7.13;;;2.97;;